createdAt,value
2022-09-01T00:01:49.195Z,93.80
2022-09-01T00:04:39.060Z,93.90
2022-09-01T00:07:30.678Z,94.10
2022-09-01T00:10:19.284Z,94.10
2022-09-01T00:13:07.798Z,94.30
2022-09-01T00:15:58.005Z,94.30
2022-09-01T00:18:49.773Z,94.50
2022-09-01T00:21:40.491Z,94.70
2022-09-01T00:24:29.121Z,94.80
2022-09-01T00:27:17.937Z,94.80
2022-09-01T00:30:09.219Z,94.90
2022-09-01T00:32:59.034Z,95.00
2022-09-01T00:35:47.494Z,95.00
2022-09-01T00:38:35.979Z,94.90
2022-09-01T00:41:26.074Z,95.10
2022-09-01T00:44:16.672Z,95.30
2022-09-01T00:47:07.079Z,95.40
2022-09-01T00:49:57.149Z,95.40
2022-09-01T00:52:47.582Z,95.60
2022-09-01T00:55:37.453Z,95.60
2022-09-01T00:58:25.951Z,95.70
2022-09-01T01:01:14.891Z,95.80
2022-09-01T01:04:04.049Z,95.80
2022-09-01T01:07:02.218Z,95.90
2022-09-01T01:09:50.699Z,96.10
2022-09-01T01:12:40.385Z,96.00
2022-09-01T01:15:29.651Z,96.10
2022-09-01T01:18:22.995Z,96.10
2022-09-01T01:21:35.802Z,96.20
2022-09-01T01:24:26.745Z,96.40
2022-09-01T01:27:17.982Z,96.40
2022-09-01T01:30:09.900Z,96.50
2022-09-01T01:32:59.093Z,96.50
2022-09-01T01:35:48.041Z,96.40
2022-09-01T01:38:36.655Z,96.60
2022-09-01T01:41:26.818Z,96.60
2022-09-01T01:44:16.112Z,96.70
2022-09-01T01:47:08.322Z,96.70
2022-09-01T01:49:57.429Z,96.70
2022-09-01T01:52:45.915Z,96.60
2022-09-01T01:55:34.694Z,96.60
2022-09-01T01:58:25.622Z,96.60
2022-09-01T02:01:14.341Z,96.70
2022-09-01T02:04:04.301Z,96.60
2022-09-01T02:06:53.091Z,96.70
2022-09-01T02:09:45.978Z,96.70
2022-09-01T02:12:37.891Z,96.70
2022-09-01T02:15:27.780Z,96.60
2022-09-01T02:18:19.101Z,96.80
2022-09-01T02:21:15.192Z,96.80
2022-09-01T02:24:08.371Z,96.80
2022-09-01T02:27:00.430Z,96.80
2022-09-01T02:29:54.598Z,96.70
2022-09-01T02:32:44.795Z,96.70
2022-09-01T02:35:34.253Z,96.90
2022-09-01T02:38:26.176Z,96.80
2022-09-01T02:41:15.011Z,96.80
2022-09-01T02:44:11.544Z,96.80
2022-09-01T02:47:01.756Z,96.80
2022-09-01T02:49:52.113Z,96.90
2022-09-01T02:52:40.560Z,97.00
2022-09-01T02:55:29.358Z,97.00
2022-09-01T02:58:20.158Z,97.00
2022-09-01T03:01:22.697Z,97.10
2022-09-01T03:04:11.937Z,97.20
2022-09-01T03:07:01.865Z,97.20
2022-09-01T03:09:50.290Z,97.20
2022-09-01T03:12:38.894Z,97.20
2022-09-01T03:15:27.425Z,97.30
2022-09-01T03:18:16.419Z,97.40
2022-09-01T03:21:05.302Z,97.50
2022-09-01T03:23:55.229Z,97.50
2022-09-01T03:26:43.953Z,97.70
2022-09-01T03:29:32.355Z,97.60
2022-09-01T03:32:20.830Z,97.60
2022-09-01T03:35:10.098Z,97.70
2022-09-01T03:37:59.055Z,97.80
2022-09-01T03:40:49.508Z,97.80
2022-09-01T03:43:37.987Z,98.00
2022-09-01T03:46:37.088Z,97.90
2022-09-01T03:49:28.702Z,97.90
2022-09-01T03:52:19.063Z,98.00
2022-09-01T03:55:09.858Z,98.00
2022-09-01T03:58:03.188Z,98.20
2022-09-01T04:00:55.377Z,98.20
2022-09-01T04:03:48.816Z,98.30
2022-09-01T04:06:40.233Z,98.20
2022-09-01T04:09:29.061Z,98.50
2022-09-01T04:12:17.561Z,98.50
2022-09-01T04:15:13.953Z,98.60
2022-09-01T04:18:09.899Z,98.80
2022-09-01T04:20:59.910Z,99.00
2022-09-01T04:23:48.967Z,99.30
2022-09-01T04:26:38.407Z,99.30
2022-09-01T04:29:28.186Z,99.60
2022-09-01T04:32:21.576Z,99.60
2022-09-01T04:35:17.122Z,99.70
2022-09-01T04:38:08.286Z,99.70
2022-09-01T04:40:57.407Z,99.90
2022-09-01T04:43:47.351Z,99.90
2022-09-01T04:46:37.198Z,99.90
2022-09-01T04:49:29.923Z,99.90
2022-09-01T04:52:18.482Z,99.90
2022-09-01T04:55:08.783Z,99.90
2022-09-01T04:57:58.496Z,99.90
2022-09-01T05:00:49.478Z,99.90
2022-09-01T05:03:39.701Z,99.90
2022-09-01T05:06:59.716Z,99.90
2022-09-01T05:09:51.527Z,99.90
2022-09-01T05:12:58.540Z,99.90
2022-09-01T05:15:48.153Z,99.90
2022-09-01T05:18:36.776Z,99.90
2022-09-01T05:21:28.203Z,99.90
2022-09-01T05:24:21.858Z,99.90
2022-09-01T05:27:12.500Z,99.90
2022-09-01T05:30:08.462Z,99.90
2022-09-01T05:32:57.047Z,99.90
2022-09-01T05:35:55.379Z,99.90
2022-09-01T05:38:44.347Z,99.90
2022-09-01T05:41:35.706Z,99.90
2022-09-01T05:44:24.305Z,99.90
2022-09-01T05:47:20.863Z,99.90
2022-09-01T05:50:14.688Z,99.90
2022-09-01T05:53:04.901Z,99.90
2022-09-01T05:56:06.647Z,99.90
2022-09-01T06:02:09.426Z,99.90
2022-09-01T06:04:59.889Z,99.90
2022-09-01T06:07:53.962Z,99.90
2022-09-01T06:10:42.858Z,99.90
2022-09-01T06:13:31.494Z,99.90
2022-09-01T06:16:21.984Z,99.90
2022-09-01T06:19:10.930Z,99.90
2022-09-01T06:22:00.163Z,99.20
2022-09-01T06:24:54.570Z,98.40
2022-09-01T06:27:45.927Z,97.90
2022-09-01T06:30:36.363Z,97.60
2022-09-01T06:33:31.075Z,96.90
2022-09-01T06:36:21.182Z,96.40
2022-09-01T06:39:19.511Z,96.70
2022-09-01T06:42:12.846Z,96.90
2022-09-01T06:45:12.602Z,97.10
2022-09-01T06:48:01.772Z,97.30
2022-09-01T06:54:03.051Z,97.40
2022-09-01T06:56:54.390Z,97.50
2022-09-01T06:59:44.247Z,97.20
2022-09-01T07:02:42.595Z,97.40
2022-09-01T07:06:04.647Z,97.30
2022-09-01T07:09:20.404Z,97.50
2022-09-01T07:12:34.322Z,97.70
2022-09-01T07:18:33.373Z,97.40
2022-09-01T07:21:41.705Z,97.20
2022-09-01T07:24:34.583Z,97.20
2022-09-01T07:27:50.503Z,97.00
2022-09-01T07:30:43.324Z,96.90
2022-09-01T07:33:54.071Z,96.90
2022-09-01T07:39:53.426Z,96.40
2022-09-01T07:49:52.567Z,95.70
2022-09-01T07:52:27.902Z,95.60
2022-09-01T07:55:21.137Z,95.20
2022-09-01T07:58:09.889Z,95.20
2022-09-01T08:01:01.723Z,95.20
2022-09-01T08:03:53.570Z,95.10
2022-09-01T08:06:43.704Z,95.20
2022-09-01T08:09:38.125Z,95.00
2022-09-01T08:12:34.426Z,95.00
2022-09-01T08:15:41.111Z,95.20
2022-09-01T08:18:47.989Z,95.20
2022-09-01T08:21:45.939Z,94.50
2022-09-01T08:24:48.704Z,94.00
2022-09-01T08:27:39.832Z,93.50
2022-09-01T08:30:28.400Z,93.00
2022-09-01T08:33:17.076Z,93.00
2022-09-01T08:36:08.562Z,92.50
2022-09-01T08:38:57.949Z,91.90
2022-09-01T08:41:53.048Z,91.70
2022-09-01T08:44:47.459Z,91.30
2022-09-01T08:47:55.980Z,91.30
2022-09-01T08:50:44.948Z,91.60
2022-09-01T08:53:59.620Z,90.90
2022-09-01T08:56:48.477Z,90.40
2022-09-01T08:59:39.005Z,90.50
2022-09-01T09:02:51.331Z,90.40
2022-09-01T09:05:50.884Z,89.40
2022-09-01T09:08:56.670Z,89.40
2022-09-01T09:11:59.959Z,88.40
2022-09-01T09:15:00.673Z,88.50
2022-09-01T09:18:00.309Z,89.10
2022-09-01T09:20:49.323Z,87.90
2022-09-01T09:23:40.702Z,88.10
2022-09-01T09:26:42.311Z,87.80
2022-09-01T09:29:31.268Z,87.50
2022-09-01T09:32:35.192Z,87.50
2022-09-01T09:35:33.253Z,87.00
2022-09-01T09:38:28.750Z,87.30
2022-09-01T09:41:25.442Z,87.00
2022-09-01T09:44:23.158Z,87.40
2022-09-01T09:47:33.368Z,85.80
2022-09-01T09:50:25.418Z,83.70
2022-09-01T09:53:18.971Z,84.50
2022-09-01T09:56:18.131Z,84.50
2022-09-01T09:59:29.203Z,83.30
2022-09-01T10:02:31.208Z,83.20
2022-09-01T10:05:39.356Z,82.60
2022-09-01T10:08:44.853Z,80.50
2022-09-01T10:11:41.380Z,81.30
2022-09-01T10:14:52.371Z,81.70
2022-09-01T10:17:44.418Z,80.90
2022-09-01T10:20:34.474Z,82.00
2022-09-01T10:23:27.115Z,83.00
2022-09-01T10:26:20.424Z,83.10
2022-09-01T10:29:15.907Z,81.60
2022-09-01T10:32:30.525Z,81.90
2022-09-01T10:35:21.170Z,80.50
2022-09-01T10:38:22.751Z,79.50
2022-09-01T10:41:15.863Z,78.50
2022-09-01T10:44:12.036Z,78.10
2022-09-01T10:47:02.502Z,76.60
2022-09-01T10:50:13.320Z,77.60
2022-09-01T10:53:07.677Z,76.50
2022-09-01T10:56:04.875Z,76.30
2022-09-01T11:02:23.549Z,76.70
2022-09-01T11:05:17.932Z,74.30
2022-09-01T11:08:25.339Z,74.20
2022-09-01T11:11:29.402Z,74.30
2022-09-01T11:14:21.865Z,72.20
2022-09-01T11:17:17.209Z,72.60
2022-09-01T11:20:10.243Z,72.90
2022-09-01T11:23:03.879Z,72.10
2022-09-01T11:29:01.998Z,71.60
2022-09-01T11:31:51.916Z,71.60
2022-09-01T11:34:42.743Z,70.40
2022-09-01T11:37:32.295Z,70.40
2022-09-01T11:40:22.357Z,70.60
2022-09-01T11:43:12.992Z,70.80
2022-09-01T11:46:09.335Z,69.90
2022-09-01T11:49:09.019Z,70.40
2022-09-01T11:51:59.170Z,69.90
2022-09-01T11:54:48.334Z,69.90
2022-09-01T11:57:38.608Z,67.60
2022-09-01T12:00:29.871Z,70.30
2022-09-01T12:03:24.409Z,70.10
2022-09-01T12:06:00.586Z,70.30
2022-09-01T12:08:33.656Z,70.50
2022-09-01T12:11:14.856Z,69.90
2022-09-01T12:13:43.699Z,68.40
2022-09-01T12:16:23.256Z,67.70
2022-09-01T12:19:00.097Z,68.00
2022-09-01T12:21:33.489Z,67.90
2022-09-01T12:24:17.420Z,67.80
2022-09-01T12:26:46.672Z,67.70
2022-09-01T12:29:18.247Z,67.60
2022-09-01T12:31:51.520Z,67.20
2022-09-01T12:34:29.499Z,67.20
2022-09-01T12:37:12.152Z,66.00
2022-09-01T12:39:41.323Z,64.60
2022-09-01T12:42:24.397Z,65.90
2022-09-01T12:44:53.804Z,66.30
2022-09-01T12:47:50.337Z,66.00
2022-09-01T12:50:45.919Z,65.70
2022-09-01T12:53:30.581Z,67.00
2022-09-01T12:56:21.611Z,66.50
2022-09-01T12:58:53.875Z,67.40
2022-09-01T13:01:32.323Z,66.70
2022-09-01T13:04:27.140Z,65.90
2022-09-01T13:06:57.750Z,63.90
2022-09-01T13:09:27.820Z,65.10
2022-09-01T13:12:10.762Z,61.60
2022-09-01T13:14:39.335Z,62.70
2022-09-01T13:17:13.939Z,62.10
2022-09-01T13:19:43.346Z,61.30
2022-09-01T13:22:11.854Z,60.10
2022-09-01T13:24:41.806Z,60.00
2022-09-01T13:27:26.799Z,58.40
2022-09-01T13:29:55.559Z,59.30
2022-09-01T13:32:24.682Z,58.00
2022-09-01T13:34:54.339Z,57.90
2022-09-01T13:37:22.912Z,57.30
2022-09-01T13:39:52.509Z,58.00
2022-09-01T13:42:20.778Z,56.60
2022-09-01T13:44:52.460Z,56.90
2022-09-01T13:47:31.779Z,57.00
2022-09-01T13:50:11.818Z,56.90
2022-09-01T13:52:40.858Z,57.00
2022-09-01T13:55:12.014Z,57.30
2022-09-01T13:57:40.199Z,56.90
2022-09-01T14:00:11.725Z,57.10
2022-09-01T14:02:40.791Z,57.40
2022-09-01T14:05:10.214Z,57.70
2022-09-01T14:07:38.363Z,58.30
2022-09-01T14:10:08.858Z,57.50
2022-09-01T14:12:38.899Z,57.80
2022-09-01T14:15:13.576Z,57.50
2022-09-01T14:17:44.755Z,57.90
2022-09-01T14:20:15.167Z,58.00
2022-09-01T14:22:43.386Z,57.30
2022-09-01T14:25:12.043Z,57.90
2022-09-01T14:27:43.933Z,57.60
2022-09-01T14:30:16.091Z,57.40
2022-09-01T14:32:44.913Z,57.10
2022-09-01T14:35:13.496Z,56.80
2022-09-01T14:37:42.036Z,57.10
2022-09-01T14:40:16.318Z,56.70
2022-09-01T14:42:48.978Z,56.90
2022-09-01T14:45:18.520Z,57.00
2022-09-01T14:47:47.517Z,57.50
2022-09-01T14:50:19.866Z,57.40
2022-09-01T14:52:52.752Z,57.70
2022-09-01T14:55:22.996Z,57.30
2022-09-01T14:57:52.829Z,57.40
2022-09-01T15:00:21.361Z,56.50
2022-09-01T15:02:49.545Z,56.20
2022-09-01T15:05:17.811Z,55.30
2022-09-01T15:07:46.006Z,55.90
2022-09-01T15:10:25.333Z,55.80
2022-09-01T15:12:56.785Z,56.00
2022-09-01T15:15:25.080Z,55.00
2022-09-01T15:17:53.398Z,55.20
2022-09-01T15:20:39.437Z,54.90
2022-09-01T15:23:07.827Z,54.70
2022-09-01T15:25:36.035Z,54.40
2022-09-01T15:28:06.035Z,54.30
2022-09-01T15:30:35.221Z,53.90
2022-09-01T15:33:03.624Z,53.90
2022-09-01T15:35:32.078Z,53.40
2022-09-01T15:38:00.590Z,53.70
2022-09-01T15:40:28.826Z,53.90
2022-09-01T15:42:57.787Z,53.80
2022-09-01T15:45:28.350Z,53.90
2022-09-01T15:47:56.521Z,53.90
2022-09-01T15:50:27.710Z,53.90
2022-09-01T15:52:58.537Z,54.30
2022-09-01T15:55:28.754Z,54.10
2022-09-01T15:57:57.086Z,53.20
2022-09-01T16:00:27.773Z,53.10
2022-09-01T16:02:56.497Z,53.60
2022-09-01T16:05:25.961Z,53.60
2022-09-01T16:10:30.393Z,53.70
2022-09-01T16:13:01.447Z,53.70
2022-09-01T16:15:31.508Z,52.90
2022-09-01T16:18:21.047Z,53.30
2022-09-01T16:20:56.478Z,53.10
2022-09-01T16:23:25.974Z,52.80
2022-09-01T16:25:54.592Z,52.50
2022-09-01T16:28:28.971Z,52.60
2022-09-01T16:31:01.872Z,52.50
2022-09-01T16:33:30.183Z,53.00
2022-09-01T16:36:17.111Z,53.20
2022-09-01T16:38:49.605Z,53.10
2022-09-01T16:41:37.163Z,53.20
2022-09-01T16:44:16.069Z,52.60
2022-09-01T16:46:50.889Z,52.60
2022-09-01T16:49:22.776Z,53.00
2022-09-01T16:51:58.770Z,52.40
2022-09-01T16:54:32.432Z,52.20
2022-09-01T16:57:03.696Z,52.50
2022-09-01T16:59:37.300Z,52.80
2022-09-01T17:02:19.659Z,52.30
2022-09-01T17:04:49.354Z,52.50
2022-09-01T17:07:24.328Z,53.10
2022-09-01T17:10:01.335Z,52.50
2022-09-01T17:12:34.412Z,52.60
2022-09-01T17:15:06.796Z,52.30
2022-09-01T17:17:42.912Z,52.30
2022-09-01T17:20:12.000Z,52.40
2022-09-01T17:22:40.415Z,52.40
2022-09-01T17:25:12.732Z,52.10
2022-09-01T17:27:51.070Z,52.70
2022-09-01T17:30:19.863Z,53.10
2022-09-01T17:33:18.629Z,52.40
2022-09-01T17:35:57.530Z,52.70
2022-09-01T17:38:29.211Z,52.90
2022-09-01T17:41:06.859Z,53.40
2022-09-01T17:43:45.581Z,53.70
2022-09-01T17:46:18.416Z,53.80
2022-09-01T17:48:51.928Z,53.80
2022-09-01T17:51:26.321Z,54.40
2022-09-01T17:54:03.152Z,54.30
2022-09-01T17:56:44.474Z,54.90
2022-09-01T17:59:16.857Z,55.30
2022-09-01T18:01:54.132Z,55.50
2022-09-01T18:04:58.105Z,55.60
2022-09-01T18:07:39.273Z,55.80
2022-09-01T18:10:13.664Z,56.20
2022-09-01T18:12:53.695Z,56.10
2022-09-01T18:15:22.982Z,56.20
2022-09-01T18:17:54.655Z,56.00
2022-09-01T18:20:26.985Z,56.70
2022-09-01T18:23:02.239Z,57.00
2022-09-01T18:25:38.832Z,57.30
2022-09-01T18:28:07.108Z,57.70
2022-09-01T18:30:52.733Z,57.60
2022-09-01T18:33:27.805Z,58.10
2022-09-01T18:36:04.416Z,58.10
2022-09-01T18:38:39.433Z,58.50
2022-09-01T18:41:38.925Z,58.70
2022-09-01T18:44:26.614Z,59.20
2022-09-01T18:46:59.493Z,59.70
2022-09-01T18:49:32.351Z,60.00
2022-09-01T18:52:12.430Z,60.80
2022-09-01T18:54:44.471Z,61.50
2022-09-01T18:57:16.898Z,61.40
2022-09-01T19:00:02.921Z,62.10
2022-09-01T19:03:07.350Z,62.90
2022-09-01T19:05:56.351Z,62.80
2022-09-01T19:08:37.857Z,63.00
2022-09-01T19:11:10.523Z,65.10
2022-09-01T19:13:48.537Z,64.20
2022-09-01T19:16:23.436Z,65.00
2022-09-01T19:18:55.990Z,65.50
2022-09-01T19:21:26.278Z,65.50
2022-09-01T19:24:00.267Z,66.10
2022-09-01T19:26:29.090Z,66.90
2022-09-01T19:29:00.298Z,66.70
2022-09-01T19:31:30.310Z,67.50
2022-09-01T19:34:00.322Z,68.40
2022-09-01T19:36:37.889Z,67.80
2022-09-01T19:39:08.731Z,68.50
2022-09-01T19:41:38.756Z,68.90
2022-09-01T19:44:10.327Z,68.80
2022-09-01T19:46:42.332Z,69.30
2022-09-01T19:49:18.878Z,69.70
2022-09-01T19:51:51.096Z,70.00
2022-09-01T19:54:27.639Z,69.70
2022-09-01T19:56:59.870Z,69.20
2022-09-01T19:59:33.197Z,70.00
2022-09-01T20:02:04.039Z,69.30
2022-09-01T20:04:40.062Z,69.40
2022-09-01T20:07:10.858Z,69.30
2022-09-01T20:09:43.983Z,69.10
2022-09-01T20:12:19.241Z,69.70
2022-09-01T20:15:08.351Z,69.70
2022-09-01T20:17:41.843Z,69.30
2022-09-01T20:20:12.165Z,69.30
2022-09-01T20:22:48.777Z,69.10
2022-09-01T20:25:20.718Z,69.30
2022-09-01T20:27:55.452Z,69.10
2022-09-01T20:30:25.184Z,68.90
2022-09-01T20:33:00.417Z,68.90
2022-09-01T20:35:39.060Z,69.30
2022-09-01T20:38:33.492Z,69.00
2022-09-01T20:41:06.317Z,69.00
2022-09-01T20:43:38.901Z,69.10
2022-09-01T20:46:07.254Z,69.00
2022-09-01T20:48:39.553Z,68.90
2022-09-01T20:51:11.759Z,69.10
2022-09-01T20:54:05.202Z,69.30
2022-09-01T20:56:42.414Z,70.70
2022-09-01T20:59:16.431Z,69.70
2022-09-01T21:01:48.106Z,69.70
2022-09-01T21:04:35.853Z,69.50
2022-09-01T21:07:09.255Z,69.90
2022-09-01T21:09:48.365Z,69.80
2022-09-01T21:12:25.015Z,70.20
2022-09-01T21:15:00.821Z,70.30
2022-09-01T21:17:40.922Z,70.30
2022-09-01T21:20:14.791Z,70.60
2022-09-01T21:22:43.168Z,70.80
2022-09-01T21:25:11.901Z,70.60
2022-09-01T21:27:44.712Z,70.80
2022-09-01T21:30:14.996Z,71.10
2022-09-01T21:32:43.349Z,71.10
2022-09-01T21:35:17.030Z,71.00
2022-09-01T21:37:45.218Z,71.20
2022-09-01T21:40:14.157Z,71.30
2022-09-01T21:42:47.305Z,71.60
2022-09-01T21:45:16.866Z,71.70
2022-09-01T21:47:46.307Z,71.50
2022-09-01T21:50:15.306Z,71.60
2022-09-01T21:52:43.623Z,71.80
2022-09-01T21:55:11.903Z,71.70
2022-09-01T21:57:40.418Z,71.90
2022-09-01T22:00:12.885Z,71.80
2022-09-01T22:02:42.966Z,72.10
2022-09-01T22:05:11.705Z,72.00
2022-09-01T22:07:41.242Z,72.20
2022-09-01T22:10:12.046Z,72.30
2022-09-01T22:12:41.620Z,72.50
2022-09-01T22:15:13.474Z,72.50
2022-09-01T22:17:41.819Z,72.60
2022-09-01T22:20:12.183Z,72.70
2022-09-01T22:22:40.426Z,73.10
2022-09-01T22:25:10.496Z,73.10
2022-09-01T22:27:38.754Z,73.30
2022-09-01T22:30:08.838Z,73.40
2022-09-01T22:32:39.781Z,73.40
2022-09-01T22:35:10.268Z,73.50
2022-09-01T22:37:38.903Z,73.90
2022-09-01T22:40:08.809Z,73.90
2022-09-01T22:42:37.201Z,74.40
2022-09-01T22:45:06.651Z,74.30
2022-09-01T22:47:37.079Z,74.50
2022-09-01T22:50:10.014Z,74.60
2022-09-01T22:52:38.378Z,75.20
2022-09-01T22:55:08.837Z,75.10
2022-09-01T22:57:37.748Z,75.10
2022-09-01T23:00:08.927Z,75.20
2022-09-01T23:02:37.404Z,75.80
2022-09-01T23:05:08.416Z,75.40
2022-09-01T23:07:39.443Z,75.60
2022-09-01T23:10:09.952Z,75.30
2022-09-01T23:12:38.126Z,75.60
2022-09-01T23:15:08.174Z,75.70
2022-09-01T23:17:36.688Z,75.80
2022-09-01T23:20:09.884Z,75.70
2022-09-01T23:22:38.075Z,76.00
2022-09-01T23:25:07.687Z,75.60
2022-09-01T23:27:36.964Z,75.60
2022-09-01T23:30:06.777Z,75.60
2022-09-01T23:32:34.988Z,75.80
2022-09-01T23:35:03.268Z,76.50
2022-09-01T23:37:32.802Z,75.90
2022-09-01T23:40:01.022Z,76.00
2022-09-01T23:42:29.317Z,75.80
2022-09-01T23:44:57.493Z,76.00
2022-09-01T23:47:25.640Z,76.00
2022-09-01T23:49:53.865Z,76.10
2022-09-01T23:52:22.066Z,76.00
2022-09-01T23:54:51.569Z,76.20
2022-09-01T23:57:20.583Z,76.40
2022-09-01T23:59:48.801Z,76.20
